New Preston Marble Dale, CT (06777)

8:27 AM EDT on August 31, 2015 (GMT -0400)
KCTWARRE4 | | Change Station
CLOSE
Current Station
Personal Weather Station
Location: Warren, CT
Elevation: 1181 ft
Nearby Weather Stations

Elev 1181 ft 41.74 °N, 73.34 °W | Updated 39 seconds ago

Partly Cloudy
Partly Cloudy
70.6 °F
Feels Like 70.6 °F
N
0.0
Wind Variable Wind from SW
Gusts 0.0 mph

Today
High -- | Low -- °F
--% Chance of Precip.
Yesterday
High -- | Low -- °F
Precip. -- in
6:17 AM 7:28 PM
Waning Gibbous, 95% visible
Pressure 30.05 in
Visibility 5.0 miles
Clouds Scattered Clouds 15000 ft
Dew Point 71 °F
Humidity 100%
Rainfall 0.00 in
Snow Depth Not available.
UV 1 out of 12
Pollen 10.00 out of 12
Air Quality Not available.
Flu Activity Not available.
METAR KOXC 311155Z 00000KT 5SM HZ SCT150 22/17 A3005
Pressure 30.05 in
Visibility 5.0 miles
Clouds Scattered Clouds 15000 ft
Dew Point 71 °F
Humidity 100%
Rainfall 0.00 in
Snow Depth Not available.
UV 1 out of 12
Pollen 10.00 out of 12
Air Quality Not available.
Flu Activity Not available.
METAR KOXC 311155Z 00000KT 5SM HZ SCT150 22/17 A3005

10-Day Weather Forecast

×

Almanac

Astronomy

Aug. 31, 2015 Rise Set
Actual Time
Civil Twilight
Nautical Twilight
Astronomical Twilight
Moon
Length of Visible Light
Length of Day
Tomorrow will be .
, % of the Moon is Illuminated

Today's Extremes

State Highs State Lows

Community

WunderPhotos

Upload Photos

1,851,222 photos uploaded!

WunderBlogs® & News

Nearby

Air Quality

  Air Quality AQ Index Pollutant
Not available.

Snow Depth

Station Depth Elevation

Earthquake Activity

City Distance Mag. Time & Date
Minimum magnitude displayed is 2.5.

Coastal Water Temperatures

Place Temperature

Stations

Nearby Weather Stations

Station Location Temp. Windchill Dew Point Humidity Wind Precip. Elev Updated Type